New York, New York
Traffic Map
Current Weather Conditions
New York, New York
Clear
Clear
44°
Feels Like: 44°
Wind Chill: 44° Ceiling: Unl
Heat Index: 44° Visibility: 10mi
Dew Point: 31° Wind: 3mph
Humidity: 60% Direction: ° ()
Pressure: 30.18in Gusts: 0mph
Raw Report DataKNYC 201251Z AUTO VRB03KT 10SM CLR 07/M01 A3018 RMK AO2 SLP210 T00671006 $
Traffic Incident Summary
Active as of:
Severity:
Category:
InformationThere was an issue retrieving the traffic information for this location. Please try a different location or try again shortly.
Advertisements
Track Severe Weather on mobile